Terminal Aerodrome Forecast
Issued by NWS

Home | Current Version | Previous Version | Text Only | Print | Product List | Glossary On
Versions: 1 2 3 4 5 6 7 8 9 10 11 12 13 14 15 16 17 18 19 20 21 22
000
FTUS43 KABR 092326
TAFPIR
TAF
KPIR 092326Z 1000/1024 03009KT P6SM -SN OVC040
     FM100200 05006KT P6SM OVC015
     FM101200 09008KT 5SM -SN OVC025
     FM101500 09012KT 4SM -SN OVC015=

USA.gov is the U.S. government's official web portal to all federal, state and local government web resources and services.